Pagrindinis puslapis
METAR-TAF:

METAR-TAF

Oro uostai :

Urugvajana, Pietų Rio Grandė, Brazilija

platuma: 29-47S, ilguma: 057-02W, Aukštis: 74 m

METAR: trūkstamas

Laikas: 22:22 (01:22 UTC)

Prognozė

Ataskaita buvo paskelbta 3 valandos ir 22 minutes, ne 22:00 UTC
Prognozė galioja nuo 25 metu 00 UTC su 25 metu 12 UTC
Vėjas 5 kt iš Šiaurės/Šiaurės Rytų
Matomumas 10 km arba daugiau
nėra debesų žemiau 1500 m ir nėra kamuolinių lietaus debesų
Tapsmas
nuo 25 metu 05 UTC su 25 metu 07 UTC
Vėjas 7 kt iš Rytų/Šiaurės Rytų
Tapsmas
nuo 25 metu 09 UTC su 25 metu 11 UTC
Vėjas 10 kt iš Šiaurės/Šiaurės Vakarų

TAF: SBUG 242200Z 2500/2512 02005KT CAVOK TX27/2500Z TN16/2508Z BECMG 2505/2507 07007KT BECMG 2509/2511 33010KT RMK PDY

Orai ataskaitas ir orų prognozės (METAR, TAF).

turimą stotys yra geltonos ir raudonos taškus žemėlapyje.

Perkelti pele per norėdami pamatyti stoties vardą.

Tada spustelėkite, norėdami matyti oro stebėjimo ir prognozės.

Norėdami pakeisti žemėlapį: spustelėkite ant žalios mygtukų su juodo kryžiaus žemyn,; žalią mygtuką su brūkšneliu, jei norite nutolinti; arba žalių rodyklių gretimoms žemėlapius.


METAR-TAF: